Time;durP1;ratioP1;P1;durP2;ratioP2;P2;SDS_P1;SDS_P2;PMS_P1;PMS_P2;Temp;Humidity;BMP_temperature;BMP_pressure;BME280_temperature;BME280_humidity;BME280_pressure;Samples;Min_cycle;Max_cycle;Signal;HPM_P1;HPM_P2
2021/01/22 00:00:30;;;;;;;1.60;1.55;;;;;;;;;;2080384;28;20169;-61
2021/01/22 00:01:30;;;;;;;1.63;1.58;;;;;;;;;;2079773;28;20699;-61
2021/01/22 00:02:30;;;;;;;1.83;1.33;;;;;;;;;;2079227;28;20540;-61
2021/01/22 00:03:30;;;;;;;1.30;1.30;;;;;;;;;;2078673;28;20576;-61
2021/01/22 00:04:31;;;;;;;1.63;1.60;;;;;;;;;;2087409;28;20622;-59
2021/01/22 00:05:31;;;;;;;2.42;1.40;;;;;;;;;;2096280;28;20183;-58
2021/01/22 00:06:31;;;;;;;1.40;1.40;;;;;;;;;;2096164;28;20210;-63
2021/01/22 00:07:31;;;;;;;1.38;1.38;;;;;;;;;;2094681;28;20171;-58
2021/01/22 00:08:32;;;;;;;1.55;1.45;;;;;;;;;;2096869;28;20233;-62
2021/01/22 00:09:32;;;;;;;1.50;1.40;;;;;;;;;;2089043;28;20168;-61
2021/01/22 00:10:32;;;;;;;1.40;1.30;;;;;;;;;;2087600;28;20176;-61
2021/01/22 00:11:32;;;;;;;1.33;1.30;;;;;;;;;;2095760;28;20181;-61
2021/01/22 00:12:33;;;;;;;1.70;1.60;;;;;;;;;;2095700;28;20179;-62
2021/01/22 00:13:33;;;;;;;1.73;1.50;;;;;;;;;;2095380;28;20206;-62
2021/01/22 00:14:33;;;;;;;1.40;1.40;;;;;;;;;;2097343;28;20190;-60
2021/01/22 00:15:33;;;;;;;1.65;1.55;;;;;;;;;;2091122;28;20599;-62
2021/01/22 00:16:34;;;;;;;1.50;1.20;;;;;;;;;;2086644;28;20613;-60
2021/01/22 00:17:34;;;;;;;1.70;1.60;;;;;;;;;;2080094;28;20210;-61
2021/01/22 00:18:34;;;;;;;1.27;1.20;;;;;;;;;;2090684;28;20659;-61
2021/01/22 00:19:35;;;;;;;2.88;1.20;;;;;;;;;;2098505;28;20175;-64
2021/01/22 00:20:35;;;;;;;1.38;1.23;;;;;;;;;;2097293;28;20171;-61
2021/01/22 00:21:36;;;;;;;1.70;1.60;;;;;;;;;;2089237;28;20274;-63
2021/01/22 00:22:37;;;;;;;1.50;1.50;;;;;;;;;;2089025;28;20179;-61
2021/01/22 00:23:38;;;;;;;1.33;1.27;;;;;;;;;;2089195;28;20167;-59
2021/01/22 00:24:38;;;;;;;2.67;1.60;;;;;;;;;;2088603;28;20679;-61
2021/01/22 00:25:38;;;;;;;1.42;1.40;;;;;;;;;;2098302;28;20178;-62
2021/01/22 00:26:38;;;;;;;1.52;1.45;;;;;;;;;;2097292;28;20258;-61
2021/01/22 00:27:38;;;;;;;1.85;1.75;;;;;;;;;;2088308;28;20205;-60
2021/01/22 00:28:39;;;;;;;1.52;1.45;;;;;;;;;;2088858;28;20682;-60
2021/01/22 00:29:39;;;;;;;1.38;1.38;;;;;;;;;;2098514;28;20649;-59
2021/01/22 00:30:39;;;;;;;1.58;1.40;;;;;;;;;;2088858;28;20175;-62
2021/01/22 00:31:39;;;;;;;1.90;1.30;;;;;;;;;;2089796;28;20691;-61
2021/01/22 00:32:40;;;;;;;1.30;1.30;;;;;;;;;;2088859;28;20243;-61
2021/01/22 00:33:40;;;;;;;1.63;1.52;;;;;;;;;;2089883;28;20259;-63
2021/01/22 00:34:40;;;;;;;1.65;1.55;;;;;;;;;;2089513;28;20208;-62
2021/01/22 00:35:41;;;;;;;1.30;1.30;;;;;;;;;;2097483;28;20194;-64
2021/01/22 00:36:41;;;;;;;1.95;1.38;;;;;;;;;;2097852;28;20178;-63
2021/01/22 00:37:41;;;;;;;1.20;1.20;;;;;;;;;;2098030;28;20171;-63
2021/01/22 00:38:41;;;;;;;1.65;1.42;;;;;;;;;;2094290;28;20254;-61
2021/01/22 00:39:41;;;;;;;2.40;1.77;;;;;;;;;;2098405;28;20244;-61
2021/01/22 00:40:42;;;;;;;1.50;1.40;;;;;;;;;;2093887;28;20257;-62
2021/01/22 00:41:43;;;;;;;3.00;1.33;;;;;;;;;;2089134;28;20270;-61
2021/01/22 00:42:43;;;;;;;1.42;1.35;;;;;;;;;;2088975;28;20175;-59
2021/01/22 00:43:44;;;;;;;2.30;1.30;;;;;;;;;;2088876;28;20783;-61
2021/01/22 00:44:44;;;;;;;1.40;1.30;;;;;;;;;;2072360;28;20203;-61
2021/01/22 00:45:44;;;;;;;1.42;1.30;;;;;;;;;;2079590;28;20191;-62
2021/01/22 00:46:44;;;;;;;3.10;1.42;;;;;;;;;;2096092;28;20222;-61
2021/01/22 00:47:45;;;;;;;1.45;1.35;;;;;;;;;;2088351;28;20171;-62
2021/01/22 00:48:45;;;;;;;2.67;1.42;;;;;;;;;;2081668;28;20208;-63
2021/01/22 00:49:45;;;;;;;2.97;1.73;;;;;;;;;;2089459;28;20167;-62
2021/01/22 00:50:46;;;;;;;1.65;1.50;;;;;;;;;;2090328;28;20184;-63
2021/01/22 00:51:46;;;;;;;2.17;1.40;;;;;;;;;;2081698;28;20175;-60
2021/01/22 00:52:47;;;;;;;2.28;1.40;;;;;;;;;;2089737;28;20192;-63
2021/01/22 00:53:47;;;;;;;1.30;1.30;;;;;;;;;;2088551;28;20179;-63
2021/01/22 00:54:47;;;;;;;1.83;1.30;;;;;;;;;;2099513;28;20221;-64
2021/01/22 00:56:06;;;;;;;1.77;1.33;;;;;;;;;;2098441;28;20270;-59
2021/01/22 00:57:08;;;;;;;1.85;1.58;;;;;;;;;;2098892;28;20155;-61
2021/01/22 00:58:08;;;;;;;1.30;1.20;;;;;;;;;;2096467;28;20270;-60
2021/01/22 00:59:08;;;;;;;1.80;1.20;;;;;;;;;;2090394;28;20552;-61
2021/01/22 01:00:11;;;;;;;2.65;1.63;;;;;;;;;;2081043;28;20669;-59
2021/01/22 01:01:20;;;;;;;1.30;1.30;;;;;;;;;;2087607;28;20180;-61
2021/01/22 01:02:20;;;;;;;1.40;1.40;;;;;;;;;;2090136;28;20199;-62
2021/01/22 01:03:20;;;;;;;1.95;1.38;;;;;;;;;;2090084;28;20187;-62
2021/01/22 01:04:20;;;;;;;1.17;1.17;;;;;;;;;;2088900;28;20227;-60
2021/01/22 01:05:32;;;;;;;1.40;1.30;;;;;;;;;;2089380;28;20612;-59
2021/01/22 01:06:32;;;;;;;2.05;1.38;;;;;;;;;;2081335;28;20191;-61
2021/01/22 01:07:34;;;;;;;1.23;1.13;;;;;;;;;;2080740;28;20169;-59
2021/01/22 01:08:34;;;;;;;1.83;1.48;;;;;;;;;;2090366;28;20192;-59
2021/01/22 01:09:44;;;;;;;2.70;1.40;;;;;;;;;;2089017;28;20211;-61
2021/01/22 01:11:03;;;;;;;2.15;1.30;;;;;;;;;;2092755;28;20160;-59
2021/01/22 01:12:15;;;;;;;1.63;1.52;;;;;;;;;;2089735;28;20187;-58
2021/01/22 01:13:33;;;;;;;4.32;1.38;;;;;;;;;;2084243;28;20168;-60
2021/01/22 01:15:57;;;;;;;1.50;1.40;;;;;;;;;;2100317;22;20312;-62
2021/01/22 01:16:58;;;;;;;1.45;1.42;;;;;;;;;;2092160;28;20179;-64
2021/01/22 01:17:58;;;;;;;1.33;1.27;;;;;;;;;;2082109;28;20193;-60
2021/01/22 01:18:59;;;;;;;1.42;1.33;;;;;;;;;;2075771;28;20283;-60
2021/01/22 01:20:00;;;;;;;1.98;1.60;;;;;;;;;;2081776;28;20208;-57
2021/01/22 01:21:00;;;;;;;2.47;1.40;;;;;;;;;;2086874;28;20226;-61
2021/01/22 01:22:00;;;;;;;1.85;1.60;;;;;;;;;;2086060;28;20221;-56
2021/01/22 01:23:01;;;;;;;1.10;1.00;;;;;;;;;;2092392;28;20183;-56
2021/01/22 01:24:01;;;;;;;1.67;1.55;;;;;;;;;;2085957;28;20160;-63
2021/01/22 01:25:02;;;;;;;1.45;1.10;;;;;;;;;;2084750;28;20248;-60
2021/01/22 01:26:02;;;;;;;1.60;1.50;;;;;;;;;;2082124;28;20179;-60
2021/01/22 01:27:02;;;;;;;1.55;1.45;;;;;;;;;;2082077;28;20207;-62
2021/01/22 01:28:02;;;;;;;1.77;1.67;;;;;;;;;;2092368;28;20179;-60
2021/01/22 01:29:03;;;;;;;1.25;1.25;;;;;;;;;;2096738;28;20191;-60
2021/01/22 01:30:04;;;;;;;1.20;1.20;;;;;;;;;;2096488;28;20198;-62
2021/01/22 01:31:04;;;;;;;1.55;1.45;;;;;;;;;;2095652;28;20168;-61
2021/01/22 01:32:05;;;;;;;1.02;1.02;;;;;;;;;;2095240;28;20214;-63
2021/01/22 01:33:05;;;;;;;1.98;1.27;;;;;;;;;;2092268;28;20195;-63
2021/01/22 01:34:05;;;;;;;1.80;1.25;;;;;;;;;;2086882;28;20176;-62
2021/01/22 01:35:06;;;;;;;3.75;1.52;;;;;;;;;;2079465;28;20185;-63
2021/01/22 01:36:06;;;;;;;1.27;1.25;;;;;;;;;;2090639;28;20176;-63
2021/01/22 01:37:06;;;;;;;1.40;1.40;;;;;;;;;;2094457;28;20175;-59
2021/01/22 01:38:06;;;;;;;1.55;1.45;;;;;;;;;;2085557;28;20192;-59
2021/01/22 01:39:07;;;;;;;1.20;1.10;;;;;;;;;;2080482;28;20183;-63
2021/01/22 01:40:07;;;;;;;1.20;1.13;;;;;;;;;;2079945;28;20865;-59
2021/01/22 01:41:07;;;;;;;1.45;1.40;;;;;;;;;;2085507;28;20180;-60
2021/01/22 01:42:08;;;;;;;1.30;1.30;;;;;;;;;;2089245;28;20263;-61
2021/01/22 01:43:08;;;;;;;1.42;1.30;;;;;;;;;;2086371;28;20176;-60
2021/01/22 01:44:09;;;;;;;1.40;1.30;;;;;;;;;;2087608;28;20184;-61
2021/01/22 01:45:09;;;;;;;2.47;1.58;;;;;;;;;;2089263;28;20179;-59
2021/01/22 01:46:09;;;;;;;1.13;1.10;;;;;;;;;;2094680;28;20172;-57
2021/01/22 01:47:10;;;;;;;2.20;1.60;;;;;;;;;;2093279;28;20171;-61
2021/01/22 01:48:11;;;;;;;1.48;1.38;;;;;;;;;;2085392;28;20172;-56
2021/01/22 01:49:11;;;;;;;1.63;1.52;;;;;;;;;;2084752;28;20183;-60
2021/01/22 01:50:12;;;;;;;1.50;1.40;;;;;;;;;;2091260;28;20164;-61
2021/01/22 01:51:13;;;;;;;2.88;1.80;;;;;;;;;;2089586;28;20187;-64
2021/01/22 01:52:13;;;;;;;1.40;1.30;;;;;;;;;;2091168;28;20180;-62
2021/01/22 01:53:13;;;;;;;2.90;1.52;;;;;;;;;;2092040;28;20186;-63
2021/01/22 01:54:14;;;;;;;1.58;1.48;;;;;;;;;;2086976;28;20208;-60
2021/01/22 01:55:15;;;;;;;1.73;1.63;;;;;;;;;;2087105;28;20187;-57
2021/01/22 01:56:15;;;;;;;0.93;0.93;;;;;;;;;;2086749;28;20211;-61
2021/01/22 01:57:15;;;;;;;1.27;1.27;;;;;;;;;;2088302;28;20168;-61
2021/01/22 01:58:16;;;;;;;2.30;1.40;;;;;;;;;;2086677;28;20199;-56
2021/01/22 01:59:16;;;;;;;1.48;1.33;;;;;;;;;;2088654;28;20225;-58
2021/01/22 02:00:17;;;;;;;1.50;1.48;;;;;;;;;;2084784;28;20168;-59
2021/01/22 02:01:17;;;;;;;2.05;1.33;;;;;;;;;;2081192;28;20238;-60
2021/01/22 02:02:18;;;;;;;1.38;1.38;;;;;;;;;;2077058;28;20634;-63
2021/01/22 02:03:19;;;;;;;2.53;1.40;;;;;;;;;;2085885;28;20187;-59
2021/01/22 02:04:19;;;;;;;3.28;1.38;;;;;;;;;;2087502;28;20596;-55
2021/01/22 02:05:19;;;;;;;1.60;1.50;;;;;;;;;;2091104;28;20283;-58
2021/01/22 02:06:20;;;;;;;3.28;1.92;;;;;;;;;;2085762;28;20175;-61
2021/01/22 02:07:20;;;;;;;1.40;1.40;;;;;;;;;;2088238;28;20570;-60
2021/01/22 02:08:20;;;;;;;1.25;1.25;;;;;;;;;;2077448;28;20207;-56
2021/01/22 02:09:21;;;;;;;1.42;1.33;;;;;;;;;;2076586;28;20184;-62
2021/01/22 02:10:21;;;;;;;1.40;1.35;;;;;;;;;;2086104;28;20164;-59
2021/01/22 02:11:21;;;;;;;1.40;1.30;;;;;;;;;;2088269;28;20184;-56
2021/01/22 02:12:22;;;;;;;1.75;1.40;;;;;;;;;;2090033;28;20663;-60
2021/01/22 02:13:22;;;;;;;1.88;1.60;;;;;;;;;;2091109;28;20625;-58
2021/01/22 02:14:23;;;;;;;1.33;1.23;;;;;;;;;;2088014;28;20179;-58
2021/01/22 02:15:23;;;;;;;1.63;1.40;;;;;;;;;;2086782;28;20291;-58
2021/01/22 02:16:24;;;;;;;2.28;1.70;;;;;;;;;;2086934;28;20184;-59
2021/01/22 02:17:24;;;;;;;1.80;1.63;;;;;;;;;;2090208;28;20179;-60
2021/01/22 02:18:25;;;;;;;2.75;1.65;;;;;;;;;;2088876;28;20251;-60
2021/01/22 02:19:38;;;;;;;2.75;1.63;;;;;;;;;;2084828;28;20549;-57
2021/01/22 02:20:46;;;;;;;2.45;1.83;;;;;;;;;;2090449;28;20175;-62
2021/01/22 02:21:46;;;;;;;2.85;2.00;;;;;;;;;;2083424;28;20199;-62
2021/01/22 02:22:46;;;;;;;1.67;1.55;;;;;;;;;;2074959;28;20181;-59
2021/01/22 02:23:47;;;;;;;3.10;1.63;;;;;;;;;;2080695;28;20676;-59
2021/01/22 02:24:47;;;;;;;4.78;1.80;;;;;;;;;;2085355;28;20175;-59
2021/01/22 02:25:49;;;;;;;1.77;1.60;;;;;;;;;;2081053;28;20708;-61
2021/01/22 02:27:04;;;;;;;2.10;1.60;;;;;;;;;;2077542;28;20184;-60
2021/01/22 02:28:07;;;;;;;2.13;1.92;;;;;;;;;;2081198;28;20178;-60
2021/01/22 02:29:08;;;;;;;2.63;1.95;;;;;;;;;;2080365;28;20172;-62
2021/01/22 02:30:08;;;;;;;2.53;1.75;;;;;;;;;;2081494;28;20234;-60
2021/01/22 02:31:11;;;;;;;3.03;1.88;;;;;;;;;;2080849;28;20661;-55
2021/01/22 02:32:12;;;;;;;3.60;2.20;;;;;;;;;;2089684;28;20182;-59
2021/01/22 02:33:14;;;;;;;2.03;1.85;;;;;;;;;;2091118;28;20168;-57
2021/01/22 02:34:15;;;;;;;2.60;1.75;;;;;;;;;;2081311;28;20184;-60
2021/01/22 02:35:17;;;;;;;3.88;1.77;;;;;;;;;;2080808;28;20841;-61
2021/01/22 02:36:19;;;;;;;1.80;1.70;;;;;;;;;;2092517;28;20175;-60
2021/01/22 02:37:19;;;;;;;2.22;2.00;;;;;;;;;;2089272;28;20271;-62
2021/01/22 02:38:20;;;;;;;3.58;1.98;;;;;;;;;;2086606;28;20184;-61
2021/01/22 02:39:24;;;;;;;2.97;1.85;;;;;;;;;;2080758;28;20288;-60
2021/01/22 02:40:24;;;;;;;2.33;1.95;;;;;;;;;;2088505;28;20548;-61
2021/01/22 02:41:25;;;;;;;3.80;2.35;;;;;;;;;;2087432;28;20168;-58
2021/01/22 02:42:27;;;;;;;4.15;2.10;;;;;;;;;;2079478;28;20180;-58
2021/01/22 02:43:28;;;;;;;3.05;1.90;;;;;;;;;;2080224;28;20192;-57
2021/01/22 02:44:29;;;;;;;1.45;1.30;;;;;;;;;;2089529;28;20203;-58
2021/01/22 02:45:30;;;;;;;1.63;1.10;;;;;;;;;;2087415;28;20329;-59
2021/01/22 02:46:30;;;;;;;3.10;1.37;;;;;;;;;;2091091;28;20259;-64
2021/01/22 02:47:31;;;;;;;1.17;0.98;;;;;;;;;;2079420;28;20236;-63
2021/01/22 02:48:32;;;;;;;1.00;1.00;;;;;;;;;;2081891;28;20172;-63
2021/01/22 02:49:32;;;;;;;1.13;1.03;;;;;;;;;;2089663;28;20790;-64
2021/01/22 02:50:33;;;;;;;1.80;1.20;;;;;;;;;;2090765;28;20204;-65
2021/01/22 02:51:33;;;;;;;1.07;1.07;;;;;;;;;;2084406;28;20180;-61
2021/01/22 02:52:35;;;;;;;2.50;1.33;;;;;;;;;;2080992;28;20180;-63
2021/01/22 02:53:36;;;;;;;1.60;1.30;;;;;;;;;;2086893;28;20172;-61
2021/01/22 02:54:36;;;;;;;1.50;1.37;;;;;;;;;;2089068;28;20211;-61
2021/01/22 02:55:36;;;;;;;1.30;1.20;;;;;;;;;;2076313;28;20652;-61
2021/01/22 02:56:43;;;;;;;1.23;1.20;;;;;;;;;;2089508;28;20172;-58
2021/01/22 02:57:49;;;;;;;0.93;0.93;;;;;;;;;;2084009;28;20175;-62
2021/01/22 02:58:52;;;;;;;1.20;1.10;;;;;;;;;;2075170;28;20165;-61
2021/01/22 02:59:57;;;;;;;1.20;1.20;;;;;;;;;;2080358;28;20234;-57
2021/01/22 03:01:01;;;;;;;1.00;1.00;;;;;;;;;;2086390;28;20160;-57
2021/01/22 03:02:20;;;;;;;1.03;1.03;;;;;;;;;;2086808;28;20169;-58
2021/01/22 03:03:35;;;;;;;1.10;1.10;;;;;;;;;;2087903;28;20202;-57
2021/01/22 03:04:36;;;;;;;1.10;1.10;;;;;;;;;;2088291;28;20185;-60
2021/01/22 03:05:37;;;;;;;1.50;1.40;;;;;;;;;;2092509;28;20219;-60
2021/01/22 03:06:40;;;;;;;1.17;1.07;;;;;;;;;;2087787;28;20172;-63
2021/01/22 03:07:43;;;;;;;1.27;1.10;;;;;;;;;;2083412;28;20199;-62
2021/01/22 03:08:44;;;;;;;1.23;1.23;;;;;;;;;;2079827;28;20184;-57
2021/01/22 03:09:45;;;;;;;1.80;1.33;;;;;;;;;;2093049;28;20171;-62
2021/01/22 03:10:46;;;;;;;1.20;1.20;;;;;;;;;;2089665;28;20267;-61
2021/01/22 03:11:48;;;;;;;1.20;1.20;;;;;;;;;;2093357;28;20179;-60
2021/01/22 03:12:49;;;;;;;1.70;1.60;;;;;;;;;;2091618;28;20663;-63
2021/01/22 03:13:49;;;;;;;1.70;1.60;;;;;;;;;;2092879;28;20179;-61
2021/01/22 03:14:50;;;;;;;1.60;1.50;;;;;;;;;;2089251;28;20184;-62
2021/01/22 03:15:50;;;;;;;1.70;1.60;;;;;;;;;;2080768;28;20300;-60
2021/01/22 03:16:51;;;;;;;1.63;1.53;;;;;;;;;;2087187;28;20180;-63
2021/01/22 03:18:08;;;;;;;1.47;1.47;;;;;;;;;;2093185;28;20171;-62
2021/01/22 03:19:08;;;;;;;1.43;1.33;;;;;;;;;;2080844;28;20667;-63
2021/01/22 03:20:10;;;;;;;1.40;1.40;;;;;;;;;;2085254;28;20164;-61
2021/01/22 03:21:10;;;;;;;1.50;1.40;;;;;;;;;;2095200;28;20202;-63
2021/01/22 03:22:11;;;;;;;1.10;1.10;;;;;;;;;;2090457;28;20236;-62
2021/01/22 03:23:12;;;;;;;2.50;1.20;;;;;;;;;;2077619;28;20565;-63
2021/01/22 03:24:12;;;;;;;1.40;1.40;;;;;;;;;;2077311;28;20173;-61
2021/01/22 03:25:13;;;;;;;1.30;1.30;;;;;;;;;;2087670;28;20548;-61
2021/01/22 03:26:13;;;;;;;1.30;1.30;;;;;;;;;;2082617;28;20195;-64
2021/01/22 03:27:15;;;;;;;1.40;1.40;;;;;;;;;;2077651;28;20284;-63
2021/01/22 03:28:15;;;;;;;1.60;1.50;;;;;;;;;;2067689;28;20189;-62
2021/01/22 03:29:15;;;;;;;1.57;1.47;;;;;;;;;;2070280;28;20184;-62
2021/01/22 03:30:16;;;;;;;1.50;1.50;;;;;;;;;;2086421;28;20188;-61
2021/01/22 03:31:17;;;;;;;1.30;1.30;;;;;;;;;;2086739;28;20653;-62
2021/01/22 03:32:17;;;;;;;1.10;1.10;;;;;;;;;;2090231;28;20172;-63
2021/01/22 03:33:17;;;;;;;1.43;1.43;;;;;;;;;;2090355;28;20602;-62
2021/01/22 03:34:18;;;;;;;1.40;1.30;;;;;;;;;;2078909;28;20186;-62
2021/01/22 03:35:18;;;;;;;1.83;1.73;;;;;;;;;;2073003;28;20188;-62
2021/01/22 03:36:18;;;;;;;1.70;1.70;;;;;;;;;;2082801;28;20175;-61
2021/01/22 03:37:19;;;;;;;1.60;1.60;;;;;;;;;;2087370;28;20168;-61
2021/01/22 03:38:19;;;;;;;1.50;1.40;;;;;;;;;;2087554;28;20305;-60
2021/01/22 03:39:19;;;;;;;1.60;1.57;;;;;;;;;;2088010;28;20254;-61
2021/01/22 03:40:20;;;;;;;1.83;1.73;;;;;;;;;;2087039;28;20180;-62
2021/01/22 03:41:21;;;;;;;1.67;1.67;;;;;;;;;;2085870;28;20671;-61
2021/01/22 03:42:21;;;;;;;1.50;1.50;;;;;;;;;;2084888;28;20203;-61
2021/01/22 03:43:21;;;;;;;1.60;1.60;;;;;;;;;;2087037;28;20176;-60
2021/01/22 03:44:21;;;;;;;1.50;1.50;;;;;;;;;;2090632;28;20533;-60
2021/01/22 03:45:22;;;;;;;1.43;1.43;;;;;;;;;;2078936;28;20192;-61
2021/01/22 03:46:22;;;;;;;1.40;1.40;;;;;;;;;;2079172;28;20630;-64
2021/01/22 03:47:22;;;;;;;1.50;1.50;;;;;;;;;;2085663;28;20188;-64
2021/01/22 03:48:22;;;;;;;1.70;1.60;;;;;;;;;;2086349;28;20188;-64
2021/01/22 03:49:23;;;;;;;1.60;1.60;;;;;;;;;;2084003;28;20176;-62
2021/01/22 03:50:23;;;;;;;1.20;1.20;;;;;;;;;;2087002;28;20171;-62
2021/01/22 03:51:23;;;;;;;1.80;1.70;;;;;;;;;;2089377;28;20175;-62
2021/01/22 03:52:23;;;;;;;2.00;1.90;;;;;;;;;;2090782;28;20213;-58
2021/01/22 03:53:24;;;;;;;2.37;2.10;;;;;;;;;;2077282;28;20169;-62
2021/01/22 03:54:24;;;;;;;2.70;2.50;;;;;;;;;;2079313;28;20180;-61
2021/01/22 03:55:24;;;;;;;2.70;2.50;;;;;;;;;;2085926;28;20819;-59
2021/01/22 03:56:24;;;;;;;3.00;2.70;;;;;;;;;;2088329;28;20544;-60
2021/01/22 03:57:25;;;;;;;2.67;2.47;;;;;;;;;;2069794;28;20244;-59
2021/01/22 03:58:25;;;;;;;2.90;2.70;;;;;;;;;;2070319;28;20203;-62
2021/01/22 03:59:25;;;;;;;2.63;2.53;;;;;;;;;;2087788;28;20637;-61
2021/01/22 04:00:26;;;;;;;2.80;2.60;;;;;;;;;;2086781;28;20177;-61
2021/01/22 04:01:29;;;;;;;2.03;1.93;;;;;;;;;;2090431;28;20201;-60
2021/01/22 04:02:29;;;;;;;2.70;2.53;;;;;;;;;;2085120;28;20574;-63
2021/01/22 04:03:29;;;;;;;2.73;2.63;;;;;;;;;;2086301;28;20179;-63
2021/01/22 04:04:29;;;;;;;2.37;2.27;;;;;;;;;;2084662;28;20185;-61
2021/01/22 04:05:29;;;;;;;3.00;2.80;;;;;;;;;;2081282;28;20211;-62
2021/01/22 04:06:30;;;;;;;2.90;2.63;;;;;;;;;;2081010;28;20179;-61
2021/01/22 04:07:30;;;;;;;2.63;2.53;;;;;;;;;;2088209;28;20179;-62
2021/01/22 04:08:30;;;;;;;3.40;3.20;;;;;;;;;;2088673;28;20195;-61
2021/01/22 04:09:30;;;;;;;3.00;2.80;;;;;;;;;;2083319;28;20188;-64
2021/01/22 04:10:31;;;;;;;3.03;2.83;;;;;;;;;;2080777;28;20188;-62
2021/01/22 04:11:31;;;;;;;2.77;2.57;;;;;;;;;;2081232;28;20164;-60
2021/01/22 04:12:32;;;;;;;3.30;3.10;;;;;;;;;;2083390;28;20184;-62
2021/01/22 04:13:32;;;;;;;3.47;3.13;;;;;;;;;;2082468;28;20323;-62
2021/01/22 04:14:32;;;;;;;3.43;3.23;;;;;;;;;;2089131;28;20225;-60
2021/01/22 04:15:32;;;;;;;4.50;3.53;;;;;;;;;;2079989;28;20204;-59
2021/01/22 04:16:33;;;;;;;3.40;3.20;;;;;;;;;;2074810;28;20172;-62
2021/01/22 04:17:33;;;;;;;3.53;3.30;;;;;;;;;;2079449;28;20612;-58
2021/01/22 04:18:34;;;;;;;4.30;3.90;;;;;;;;;;2073780;28;20203;-63
2021/01/22 04:19:34;;;;;;;2.67;2.47;;;;;;;;;;2085961;28;20175;-62
2021/01/22 04:20:34;;;;;;;3.13;2.83;;;;;;;;;;2085207;28;20259;-63
2021/01/22 04:21:34;;;;;;;3.63;3.33;;;;;;;;;;2089851;28;20195;-61
2021/01/22 04:22:35;;;;;;;4.27;3.97;;;;;;;;;;2090529;28;20168;-63
2021/01/22 04:23:35;;;;;;;4.10;3.40;;;;;;;;;;2087498;28;20170;-62
2021/01/22 04:24:35;;;;;;;4.23;3.93;;;;;;;;;;2093394;28;20178;-62
2021/01/22 04:25:35;;;;;;;3.83;3.50;;;;;;;;;;2090122;28;20195;-61
2021/01/22 04:26:35;;;;;;;4.43;4.03;;;;;;;;;;2084775;28;20176;-62
2021/01/22 04:27:36;;;;;;;4.20;3.60;;;;;;;;;;2083284;28;20186;-59
2021/01/22 04:28:36;;;;;;;3.83;3.53;;;;;;;;;;2090175;28;20301;-56
2021/01/22 04:29:37;;;;;;;4.30;3.90;;;;;;;;;;2080765;28;20636;-61
2021/01/22 04:30:37;;;;;;;4.23;3.93;;;;;;;;;;2075566;28;20592;-63
2021/01/22 04:31:38;;;;;;;4.77;3.63;;;;;;;;;;2083077;28;20251;-61
2021/01/22 04:32:39;;;;;;;5.30;4.80;;;;;;;;;;2084323;28;20673;-59
2021/01/22 04:33:40;;;;;;;4.27;3.97;;;;;;;;;;2085930;28;20210;-59
2021/01/22 04:34:40;;;;;;;4.70;4.30;;;;;;;;;;2084964;28;20188;-59
2021/01/22 04:35:40;;;;;;;5.60;5.00;;;;;;;;;;2091574;28;20229;-62
2021/01/22 04:36:40;;;;;;;5.07;4.67;;;;;;;;;;2084244;28;20231;-63
2021/01/22 04:37:41;;;;;;;5.57;5.07;;;;;;;;;;2084002;28;20180;-64
2021/01/22 04:38:41;;;;;;;4.53;4.13;;;;;;;;;;2089092;28;20664;-63
2021/01/22 04:39:41;;;;;;;4.47;3.77;;;;;;;;;;2083346;28;20187;-63
2021/01/22 04:40:42;;;;;;;4.80;4.40;;;;;;;;;;2083964;28;20160;-63
2021/01/22 04:41:42;;;;;;;4.57;4.17;;;;;;;;;;2085035;28;20184;-62
2021/01/22 04:42:43;;;;;;;5.30;4.80;;;;;;;;;;2092634;28;20176;-63
2021/01/22 04:43:44;;;;;;;5.83;5.23;;;;;;;;;;2088004;28;20179;-61
2021/01/22 04:44:44;;;;;;;5.50;5.00;;;;;;;;;;2085614;28;20223;-61
2021/01/22 04:45:44;;;;;;;6.13;3.90;;;;;;;;;;2087841;28;20203;-62
2021/01/22 04:46:45;;;;;;;6.93;4.93;;;;;;;;;;2092519;28;20256;-62
2021/01/22 04:47:45;;;;;;;4.90;4.40;;;;;;;;;;2089425;28;20184;-58
2021/01/22 04:48:47;;;;;;;5.63;5.03;;;;;;;;;;2090148;28;20172;-63
2021/01/22 04:49:49;;;;;;;4.90;4.47;;;;;;;;;;2087836;28;20203;-61
2021/01/22 04:50:52;;;;;;;5.13;4.63;;;;;;;;;;2093166;28;20597;-62
2021/01/22 04:51:55;;;;;;;5.57;5.00;;;;;;;;;;2088708;28;20183;-60
2021/01/22 04:52:56;;;;;;;5.07;4.57;;;;;;;;;;2096329;28;20172;-63
2021/01/22 04:54:00;;;;;;;6.23;5.57;;;;;;;;;;2093529;28;20420;-60
2021/01/22 04:55:02;;;;;;;6.00;5.07;;;;;;;;;;2088819;28;20429;-60
2021/01/22 04:56:05;;;;;;;4.97;4.47;;;;;;;;;;2089231;28;20561;-63
2021/01/22 04:57:06;;;;;;;6.13;5.37;;;;;;;;;;2091255;28;20180;-63
2021/01/22 04:58:08;;;;;;;6.33;5.20;;;;;;;;;;2093401;28;20229;-61
2021/01/22 04:59:15;;;;;;;4.73;4.33;;;;;;;;;;2088199;28;20183;-66
2021/01/22 05:00:16;;;;;;;7.60;6.07;;;;;;;;;;2088675;28;20175;-67
2021/01/22 05:01:16;;;;;;;7.07;6.37;;;;;;;;;;2083285;28;20172;-59
2021/01/22 05:02:20;;;;;;;6.83;6.20;;;;;;;;;;2080083;28;20723;-64
2021/01/22 05:03:26;;;;;;;7.63;6.63;;;;;;;;;;2081738;28;20203;-61
2021/01/22 05:04:26;;;;;;;8.97;6.67;;;;;;;;;;2084398;28;20417;-61
2021/01/22 05:05:27;;;;;;;6.00;5.40;;;;;;;;;;2092126;28;20839;-63
2021/01/22 05:06:28;;;;;;;7.80;6.43;;;;;;;;;;2083491;28;20182;-61
2021/01/22 05:07:29;;;;;;;8.10;6.43;;;;;;;;;;2083868;28;20172;-61
2021/01/22 05:08:29;;;;;;;9.70;7.37;;;;;;;;;;2082146;28;20751;-64
2021/01/22 05:09:29;;;;;;;8.63;7.77;;;;;;;;;;2078449;28;20331;-63
2021/01/22 05:10:30;;;;;;;8.97;7.20;;;;;;;;;;2083961;28;20204;-60
2021/01/22 05:11:30;;;;;;;8.67;7.17;;;;;;;;;;2085752;28;20339;-63
2021/01/22 05:12:34;;;;;;;11.27;7.77;;;;;;;;;;2083346;28;20176;-64
2021/01/22 05:13:36;;;;;;;10.83;7.77;;;;;;;;;;2074814;28;20557;-61
2021/01/22 05:14:36;;;;;;;8.87;7.97;;;;;;;;;;2083050;28;20184;-59
2021/01/22 05:15:37;;;;;;;11.97;8.83;;;;;;;;;;2088075;28;20212;-62
2021/01/22 05:16:37;;;;;;;11.17;8.70;;;;;;;;;;2092425;28;20167;-64
2021/01/22 05:17:51;;;;;;;10.93;7.80;;;;;;;;;;2079588;28;20175;-64
2021/01/22 05:18:52;;;;;;;9.67;8.17;;;;;;;;;;2078929;28;20180;-61
2021/01/22 05:20:04;;;;;;;8.60;7.50;;;;;;;;;;2078003;28;20173;-61
2021/01/22 05:21:11;;;;;;;12.77;8.07;;;;;;;;;;2084738;28;20168;-63
2021/01/22 05:22:15;;;;;;;9.27;8.07;;;;;;;;;;2088309;28;20566;-62
2021/01/22 05:23:15;;;;;;;11.17;9.27;;;;;;;;;;2087818;28;20844;-61
2021/01/22 05:24:18;;;;;;;11.90;8.17;;;;;;;;;;2080669;28;20171;-60
2021/01/22 05:25:19;;;;;;;12.10;9.63;;;;;;;;;;2084280;28;20164;-62
2021/01/22 05:26:20;;;;;;;10.63;8.63;;;;;;;;;;2086882;28;20404;-63
2021/01/22 05:27:20;;;;;;;12.00;8.97;;;;;;;;;;2086174;28;20591;-63
2021/01/22 05:28:32;;;;;;;11.83;8.43;;;;;;;;;;2078474;28;20179;-60
2021/01/22 05:29:36;;;;;;;10.50;8.73;;;;;;;;;;2065615;28;20328;-63
2021/01/22 05:30:36;;;;;;;11.73;8.20;;;;;;;;;;2074462;28;20177;-63
2021/01/22 05:31:37;;;;;;;11.37;8.33;;;;;;;;;;2084043;28;20568;-63
2021/01/22 05:32:37;;;;;;;13.07;9.03;;;;;;;;;;2086050;28;20176;-60
2021/01/22 05:33:38;;;;;;;11.40;8.53;;;;;;;;;;2075991;28;20177;-59
2021/01/22 05:34:45;;;;;;;12.93;9.20;;;;;;;;;;2074863;28;20208;-58
2021/01/22 05:35:45;;;;;;;12.30;8.70;;;;;;;;;;2075903;28;20245;-63
2021/01/22 05:36:49;;;;;;;11.13;9.33;;;;;;;;;;2083795;28;20271;-58
2021/01/22 05:37:50;;;;;;;10.60;9.00;;;;;;;;;;2090565;28;20199;-62
2021/01/22 05:38:51;;;;;;;12.17;8.93;;;;;;;;;;2091574;28;20183;-63
2021/01/22 05:40:23;;;;;;;10.57;8.10;;;;;;;;;;2084386;28;20596;-63
2021/01/22 05:41:24;;;;;;;11.17;8.80;;;;;;;;;;2055058;28;20201;-61
2021/01/22 05:42:43;;;;;;;11.53;9.17;;;;;;;;;;2068632;28;20287;-58
2021/01/22 05:43:44;;;;;;;11.83;8.13;;;;;;;;;;2084778;28;20194;-61
2021/01/22 05:44:51;;;;;;;13.00;7.73;;;;;;;;;;2091614;28;20207;-58
2021/01/22 05:45:51;;;;;;;11.43;7.70;;;;;;;;;;2086020;28;20203;-62
2021/01/22 05:47:07;;;;;;;10.77;8.70;;;;;;;;;;2082731;28;20180;-62
2021/01/22 05:48:17;;;;;;;14.13;7.73;;;;;;;;;;2086691;28;20188;-62
2021/01/22 05:49:17;;;;;;;13.30;9.43;;;;;;;;;;2085405;28;20251;-64
2021/01/22 05:50:17;;;;;;;11.47;9.40;;;;;;;;;;2087820;28;20176;-65
2021/01/22 05:51:30;;;;;;;13.33;9.37;;;;;;;;;;2088713;28;20176;-64
2021/01/22 05:52:31;;;;;;;12.13;9.47;;;;;;;;;;2083178;28;20179;-64
2021/01/22 05:53:31;;;;;;;13.77;9.77;;;;;;;;;;2095130;28;20190;-62
2021/01/22 05:54:40;;;;;;;13.17;10.40;;;;;;;;;;2089001;28;20168;-61
2021/01/22 05:55:40;;;;;;;8.13;7.30;;;;;;;;;;2088235;28;20231;-61
2021/01/22 05:56:55;;;;;;;12.30;9.27;;;;;;;;;;2080917;28;20177;-63
2021/01/22 05:57:55;;;;;;;14.17;10.00;;;;;;;;;;2091361;28;20156;-60
2021/01/22 05:58:55;;;;;;;13.53;9.27;;;;;;;;;;2094809;28;20186;-61
2021/01/22 06:00:11;;;;;;;7.90;6.87;;;;;;;;;;2086428;28;20181;-62
2021/01/22 06:01:16;;;;;;;14.00;9.77;;;;;;;;;;2087727;28;20172;-62
2021/01/22 06:02:26;;;;;;;16.83;10.97;;;;;;;;;;2091542;28;20160;-59
2021/01/22 06:03:26;;;;;;;17.07;10.90;;;;;;;;;;2094772;28;20239;-61
2021/01/22 06:04:26;;;;;;;13.83;11.23;;;;;;;;;;2083770;28;20199;-59
2021/01/22 06:05:27;;;;;;;16.43;12.70;;;;;;;;;;2086751;28;20196;-62
2021/01/22 06:06:30;;;;;;;17.53;12.33;;;;;;;;;;2087329;28;20224;-61
2021/01/22 06:07:30;;;;;;;16.63;11.73;;;;;;;;;;2087464;28;20242;-64
2021/01/22 06:08:31;;;;;;;15.70;10.97;;;;;;;;;;2093151;28;20306;-63
2021/01/22 06:09:32;;;;;;;16.70;12.53;;;;;;;;;;2086328;28;20181;-63
2021/01/22 06:10:37;;;;;;;14.80;11.27;;;;;;;;;;2081918;28;20186;-62